IE-0036 weather

Spollens Airstrip
Tullamore, County Offaly, Ireland

Public forecast

Using degrees Celsius for public forecast. Weather courtesy of forecast.io.

METAR (pilot weather report)

Closest report is Casement Air Base, 38.7 nm (71.7 km) E. Retrieved 2019/06/19 04:00 UTC (52 minutes ago):

EIME 190400Z 25006KT 9999 FEW015 BKN060 BKN080 11/09 Q1009

TAF (pilot weather forecast)

Forecast is more than 12 hours old.

Closest forecast is Dublin Airport, 45.8 nm (84.9 km) E. Retrieved 2019/06/18 00:09 UTC (1 day ago):

TAF EIDW 182300Z 1900/1924 26010KT 9999 FEW020 SCT040 TEMPO 1912/1918 -SHRA FEW020CB